Aviation Digital Data Service (ADDS)

Output produced by METARs form (0135 UTC 23 November 2017)
found at http://www.aviationweather.gov/adds/metars/
 
FSPP 230100Z 09001KT //// //// 26/23 Q1010
FSIA 230100Z 19003KT 9999 FEW018 25/22 Q1009 NOSIG
TAF FSIA 222300Z 2300/2324 27005KT 9999 FEW014CB SCT018 
     TEMPO 2300/2306 -SHRA FEW014CB BKN016 
     PROB30 
     TEMPO 2312/2320 -SHRA BKN016